sensor_id;sensor_type;location;lat;lon;timestamp;P1;durP1;ratioP1;P2;durP2;ratioP2
39322;SDS011;25036;53.638;10.134;2022-12-29T00:00:52;2.47;;;1.00;;
39322;SDS011;25036;53.638;10.134;2022-12-29T00:01:52;1.47;;;0.70;;
39322;SDS011;25036;53.638;10.134;2022-12-29T00:02:53;3.20;;;1.10;;
39322;SDS011;25036;53.638;10.134;2022-12-29T00:03:53;2.53;;;0.80;;
39322;SDS011;25036;53.638;10.134;2022-12-29T00:04:53;1.27;;;0.90;;
39322;SDS011;25036;53.638;10.134;2022-12-29T00:05:55;2.15;;;0.90;;
39322;SDS011;25036;53.638;10.134;2022-12-29T00:06:55;2.60;;;0.95;;
39322;SDS011;25036;53.638;10.134;2022-12-29T00:07:55;1.47;;;1.07;;
39322;SDS011;25036;53.638;10.134;2022-12-29T00:08:55;1.70;;;0.77;;
39322;SDS011;25036;53.638;10.134;2022-12-29T00:09:55;1.05;;;0.75;;
39322;SDS011;25036;53.638;10.134;2022-12-29T00:10:56;1.57;;;0.90;;
39322;SDS011;25036;53.638;10.134;2022-12-29T00:11:56;1.20;;;1.03;;
39322;SDS011;25036;53.638;10.134;2022-12-29T00:12:56;1.90;;;1.20;;
39322;SDS011;25036;53.638;10.134;2022-12-29T00:14:15;0.73;;;0.70;;
39322;SDS011;25036;53.638;10.134;2022-12-29T00:15:35;1.65;;;1.20;;
39322;SDS011;25036;53.638;10.134;2022-12-29T00:16:42;0.90;;;0.75;;
39322;SDS011;25036;53.638;10.134;2022-12-29T00:17:42;1.33;;;0.80;;
39322;SDS011;25036;53.638;10.134;2022-12-29T00:18:43;1.37;;;0.90;;
39322;SDS011;25036;53.638;10.134;2022-12-29T00:19:43;1.60;;;1.00;;
39322;SDS011;25036;53.638;10.134;2022-12-29T00:21:02;0.90;;;0.85;;
39322;SDS011;25036;53.638;10.134;2022-12-29T00:22:21;1.58;;;0.90;;
39322;SDS011;25036;53.638;10.134;2022-12-29T00:23:39;1.15;;;0.73;;
39322;SDS011;25036;53.638;10.134;2022-12-29T00:24:58;0.73;;;0.70;;
39322;SDS011;25036;53.638;10.134;2022-12-29T00:26:09;1.98;;;0.98;;
39322;SDS011;25036;53.638;10.134;2022-12-29T00:27:31;1.85;;;0.88;;
39322;SDS011;25036;53.638;10.134;2022-12-29T00:28:50;0.80;;;0.77;;
39322;SDS011;25036;53.638;10.134;2022-12-29T00:30:13;1.10;;;0.90;;
39322;SDS011;25036;53.638;10.134;2022-12-29T00:31:32;1.17;;;0.77;;
39322;SDS011;25036;53.638;10.134;2022-12-29T00:33:09;0.82;;;0.70;;
39322;SDS011;25036;53.638;10.134;2022-12-29T00:34:28;1.70;;;1.08;;
39322;SDS011;25036;53.638;10.134;2022-12-29T00:36:04;2.20;;;1.08;;
39322;SDS011;25036;53.638;10.134;2022-12-29T00:37:04;2.10;;;1.00;;
39322;SDS011;25036;53.638;10.134;2022-12-29T00:38:05;0.80;;;0.80;;
39322;SDS011;25036;53.638;10.134;2022-12-29T00:39:24;1.27;;;0.95;;
39322;SDS011;25036;53.638;10.134;2022-12-29T00:40:43;1.48;;;0.95;;
39322;SDS011;25036;53.638;10.134;2022-12-29T00:42:02;1.25;;;0.90;;
39322;SDS011;25036;53.638;10.134;2022-12-29T00:43:21;1.20;;;1.10;;
39322;SDS011;25036;53.638;10.134;2022-12-29T00:44:40;1.27;;;1.00;;
39322;SDS011;25036;53.638;10.134;2022-12-29T00:45:41;1.60;;;1.00;;
39322;SDS011;25036;53.638;10.134;2022-12-29T00:46:41;1.00;;;0.90;;
39322;SDS011;25036;53.638;10.134;2022-12-29T00:47:42;1.35;;;1.08;;
39322;SDS011;25036;53.638;10.134;2022-12-29T00:48:42;1.43;;;1.00;;
39322;SDS011;25036;53.638;10.134;2022-12-29T00:50:00;2.13;;;1.00;;
39322;SDS011;25036;53.638;10.134;2022-12-29T00:51:01;1.33;;;1.10;;
39322;SDS011;25036;53.638;10.134;2022-12-29T00:52:02;1.50;;;1.00;;
39322;SDS011;25036;53.638;10.134;2022-12-29T00:53:03;1.75;;;0.80;;
39322;SDS011;25036;53.638;10.134;2022-12-29T00:54:04;1.13;;;1.00;;
39322;SDS011;25036;53.638;10.134;2022-12-29T00:55:04;1.23;;;1.03;;
39322;SDS011;25036;53.638;10.134;2022-12-29T00:56:04;2.53;;;1.05;;
39322;SDS011;25036;53.638;10.134;2022-12-29T00:57:05;0.80;;;0.80;;
39322;SDS011;25036;53.638;10.134;2022-12-29T00:58:05;2.17;;;1.10;;
39322;SDS011;25036;53.638;10.134;2022-12-29T00:59:06;0.80;;;0.80;;
39322;SDS011;25036;53.638;10.134;2022-12-29T01:00:07;0.93;;;0.80;;
39322;SDS011;25036;53.638;10.134;2022-12-29T01:01:08;1.20;;;1.10;;
39322;SDS011;25036;53.638;10.134;2022-12-29T01:02:09;1.00;;;0.90;;
39322;SDS011;25036;53.638;10.134;2022-12-29T01:03:09;1.23;;;1.10;;
39322;SDS011;25036;53.638;10.134;2022-12-29T01:04:09;1.20;;;0.90;;
39322;SDS011;25036;53.638;10.134;2022-12-29T01:05:10;1.77;;;1.00;;
39322;SDS011;25036;53.638;10.134;2022-12-29T01:06:10;1.77;;;0.80;;
39322;SDS011;25036;53.638;10.134;2022-12-29T01:07:11;1.48;;;0.93;;
39322;SDS011;25036;53.638;10.134;2022-12-29T01:08:11;1.10;;;1.00;;
39322;SDS011;25036;53.638;10.134;2022-12-29T01:09:11;0.97;;;0.80;;
39322;SDS011;25036;53.638;10.134;2022-12-29T01:10:30;1.90;;;0.98;;
39322;SDS011;25036;53.638;10.134;2022-12-29T01:11:30;1.70;;;0.90;;
39322;SDS011;25036;53.638;10.134;2022-12-29T01:12:30;1.70;;;0.90;;
39322;SDS011;25036;53.638;10.134;2022-12-29T01:13:41;2.17;;;1.00;;
39322;SDS011;25036;53.638;10.134;2022-12-29T01:14:43;1.48;;;0.82;;
39322;SDS011;25036;53.638;10.134;2022-12-29T01:15:48;1.23;;;0.90;;
39322;SDS011;25036;53.638;10.134;2022-12-29T01:16:49;1.42;;;1.00;;
39322;SDS011;25036;53.638;10.134;2022-12-29T01:17:49;1.88;;;0.90;;
39322;SDS011;25036;53.638;10.134;2022-12-29T01:18:49;2.17;;;0.90;;
39322;SDS011;25036;53.638;10.134;2022-12-29T01:19:49;1.97;;;0.90;;
39322;SDS011;25036;53.638;10.134;2022-12-29T01:20:49;1.30;;;1.00;;
39322;SDS011;25036;53.638;10.134;2022-12-29T01:21:50;1.27;;;0.95;;
39322;SDS011;25036;53.638;10.134;2022-12-29T01:22:50;1.83;;;1.00;;
39322;SDS011;25036;53.638;10.134;2022-12-29T01:23:50;1.43;;;1.20;;
39322;SDS011;25036;53.638;10.134;2022-12-29T01:24:50;1.00;;;0.88;;
39322;SDS011;25036;53.638;10.134;2022-12-29T01:25:50;1.85;;;0.70;;
39322;SDS011;25036;53.638;10.134;2022-12-29T01:26:51;1.20;;;0.90;;
39322;SDS011;25036;53.638;10.134;2022-12-29T01:27:51;2.45;;;1.17;;
39322;SDS011;25036;53.638;10.134;2022-12-29T01:28:51;2.30;;;1.00;;
39322;SDS011;25036;53.638;10.134;2022-12-29T01:29:51;2.40;;;0.90;;
39322;SDS011;25036;53.638;10.134;2022-12-29T01:30:51;1.50;;;0.77;;
39322;SDS011;25036;53.638;10.134;2022-12-29T01:31:51;1.17;;;0.80;;
39322;SDS011;25036;53.638;10.134;2022-12-29T01:32:52;0.90;;;0.85;;
39322;SDS011;25036;53.638;10.134;2022-12-29T01:33:52;1.67;;;0.90;;
39322;SDS011;25036;53.638;10.134;2022-12-29T01:34:52;1.17;;;0.87;;
39322;SDS011;25036;53.638;10.134;2022-12-29T01:35:52;2.00;;;1.00;;
39322;SDS011;25036;53.638;10.134;2022-12-29T01:36:52;2.13;;;0.90;;
39322;SDS011;25036;53.638;10.134;2022-12-29T01:37:53;0.80;;;0.80;;
39322;SDS011;25036;53.638;10.134;2022-12-29T01:38:53;1.75;;;0.90;;
39322;SDS011;25036;53.638;10.134;2022-12-29T01:39:53;1.20;;;0.90;;
39322;SDS011;25036;53.638;10.134;2022-12-29T01:40:53;0.80;;;0.80;;
39322;SDS011;25036;53.638;10.134;2022-12-29T01:41:53;2.13;;;0.90;;
39322;SDS011;25036;53.638;10.134;2022-12-29T01:42:53;0.83;;;0.80;;
39322;SDS011;25036;53.638;10.134;2022-12-29T01:43:57;1.67;;;0.82;;
39322;SDS011;25036;53.638;10.134;2022-12-29T01:45:03;1.15;;;1.10;;
39322;SDS011;25036;53.638;10.134;2022-12-29T01:46:05;2.08;;;0.98;;
39322;SDS011;25036;53.638;10.134;2022-12-29T01:47:07;1.33;;;0.90;;
39322;SDS011;25036;53.638;10.134;2022-12-29T01:48:08;2.50;;;0.90;;
39322;SDS011;25036;53.638;10.134;2022-12-29T01:50:14;0.90;;;0.90;;
39322;SDS011;25036;53.638;10.134;2022-12-29T01:51:16;1.80;;;1.10;;
39322;SDS011;25036;53.638;10.134;2022-12-29T01:52:16;1.33;;;0.98;;
39322;SDS011;25036;53.638;10.134;2022-12-29T01:53:20;2.53;;;0.97;;
39322;SDS011;25036;53.638;10.134;2022-12-29T01:54:22;0.90;;;0.85;;
39322;SDS011;25036;53.638;10.134;2022-12-29T01:55:25;4.03;;;1.00;;
39322;SDS011;25036;53.638;10.134;2022-12-29T01:56:26;1.00;;;0.90;;
39322;SDS011;25036;53.638;10.134;2022-12-29T01:57:28;0.95;;;0.80;;
39322;SDS011;25036;53.638;10.134;2022-12-29T01:58:30;2.88;;;1.10;;
39322;SDS011;25036;53.638;10.134;2022-12-29T01:59:32;1.33;;;1.05;;
39322;SDS011;25036;53.638;10.134;2022-12-29T02:00:34;1.48;;;1.00;;
39322;SDS011;25036;53.638;10.134;2022-12-29T02:01:34;2.05;;;1.10;;
39322;SDS011;25036;53.638;10.134;2022-12-29T02:02:34;2.17;;;1.05;;
39322;SDS011;25036;53.638;10.134;2022-12-29T02:03:35;1.48;;;1.00;;
39322;SDS011;25036;53.638;10.134;2022-12-29T02:04:36;1.05;;;0.90;;
39322;SDS011;25036;53.638;10.134;2022-12-29T02:05:39;0.80;;;0.75;;
39322;SDS011;25036;53.638;10.134;2022-12-29T02:06:41;2.30;;;1.10;;
39322;SDS011;25036;53.638;10.134;2022-12-29T02:07:44;1.00;;;0.70;;
39322;SDS011;25036;53.638;10.134;2022-12-29T02:08:46;1.35;;;1.13;;
39322;SDS011;25036;53.638;10.134;2022-12-29T02:09:47;2.10;;;1.23;;
39322;SDS011;25036;53.638;10.134;2022-12-29T02:10:48;1.05;;;0.98;;
39322;SDS011;25036;53.638;10.134;2022-12-29T02:11:48;1.75;;;1.13;;
39322;SDS011;25036;53.638;10.134;2022-12-29T02:12:48;1.65;;;0.95;;
39322;SDS011;25036;53.638;10.134;2022-12-29T02:13:49;1.10;;;1.00;;
39322;SDS011;25036;53.638;10.134;2022-12-29T02:14:51;1.20;;;1.17;;
39322;SDS011;25036;53.638;10.134;2022-12-29T02:16:00;1.83;;;1.00;;
39322;SDS011;25036;53.638;10.134;2022-12-29T02:17:08;1.77;;;1.23;;
39322;SDS011;25036;53.638;10.134;2022-12-29T02:20:28;0.90;;;0.90;;
39322;SDS011;25036;53.638;10.134;2022-12-29T02:21:38;1.00;;;0.98;;
39322;SDS011;25036;53.638;10.134;2022-12-29T02:25:06;1.17;;;1.00;;
39322;SDS011;25036;53.638;10.134;2022-12-29T02:27:36;1.70;;;1.10;;
39322;SDS011;25036;53.638;10.134;2022-12-29T02:29:43;1.50;;;1.10;;
39322;SDS011;25036;53.638;10.134;2022-12-29T02:32:01;2.17;;;0.80;;
39322;SDS011;25036;53.638;10.134;2022-12-29T02:33:18;1.40;;;1.20;;
39322;SDS011;25036;53.638;10.134;2022-12-29T02:34:26;1.95;;;1.05;;
39322;SDS011;25036;53.638;10.134;2022-12-29T02:35:33;1.33;;;1.15;;
39322;SDS011;25036;53.638;10.134;2022-12-29T02:37:57;2.22;;;1.27;;
39322;SDS011;25036;53.638;10.134;2022-12-29T02:39:08;1.13;;;1.02;;
39322;SDS011;25036;53.638;10.134;2022-12-29T02:41:33;1.15;;;1.05;;
39322;SDS011;25036;53.638;10.134;2022-12-29T02:42:35;1.30;;;1.00;;
39322;SDS011;25036;53.638;10.134;2022-12-29T02:44:55;1.10;;;1.00;;
39322;SDS011;25036;53.638;10.134;2022-12-29T02:45:59;1.05;;;0.95;;
39322;SDS011;25036;53.638;10.134;2022-12-29T02:48:10;0.83;;;0.83;;
39322;SDS011;25036;53.638;10.134;2022-12-29T02:50:26;1.20;;;1.10;;
39322;SDS011;25036;53.638;10.134;2022-12-29T02:51:35;1.10;;;1.00;;
39322;SDS011;25036;53.638;10.134;2022-12-29T02:52:45;1.20;;;1.10;;
39322;SDS011;25036;53.638;10.134;2022-12-29T02:53:47;1.63;;;1.00;;
39322;SDS011;25036;53.638;10.134;2022-12-29T02:55:05;1.50;;;1.10;;
39322;SDS011;25036;53.638;10.134;2022-12-29T02:56:06;1.20;;;1.02;;
39322;SDS011;25036;53.638;10.134;2022-12-29T02:58:36;1.67;;;1.13;;
39322;SDS011;25036;53.638;10.134;2022-12-29T02:59:36;1.52;;;0.90;;
39322;SDS011;25036;53.638;10.134;2022-12-29T03:00:37;1.80;;;1.00;;
39322;SDS011;25036;53.638;10.134;2022-12-29T03:03:22;1.00;;;0.90;;
39322;SDS011;25036;53.638;10.134;2022-12-29T03:07:02;1.17;;;1.08;;
39322;SDS011;25036;53.638;10.134;2022-12-29T03:09:39;1.15;;;0.90;;
39322;SDS011;25036;53.638;10.134;2022-12-29T03:10:48;3.08;;;1.20;;
39322;SDS011;25036;53.638;10.134;2022-12-29T03:11:52;0.88;;;0.88;;
39322;SDS011;25036;53.638;10.134;2022-12-29T03:14:33;1.20;;;0.88;;
39322;SDS011;25036;53.638;10.134;2022-12-29T03:16:06;0.73;;;0.73;;
39322;SDS011;25036;53.638;10.134;2022-12-29T03:17:08;1.20;;;0.80;;
39322;SDS011;25036;53.638;10.134;2022-12-29T03:18:12;1.00;;;0.85;;
39322;SDS011;25036;53.638;10.134;2022-12-29T03:19:20;1.88;;;0.90;;
39322;SDS011;25036;53.638;10.134;2022-12-29T03:20:23;1.05;;;0.77;;
39322;SDS011;25036;53.638;10.134;2022-12-29T03:21:43;1.20;;;0.93;;
39322;SDS011;25036;53.638;10.134;2022-12-29T03:23:03;1.33;;;0.80;;
39322;SDS011;25036;53.638;10.134;2022-12-29T03:24:03;1.52;;;1.10;;
39322;SDS011;25036;53.638;10.134;2022-12-29T03:25:05;1.33;;;0.75;;
39322;SDS011;25036;53.638;10.134;2022-12-29T03:26:07;1.45;;;0.80;;
39322;SDS011;25036;53.638;10.134;2022-12-29T03:27:09;1.95;;;0.77;;
39322;SDS011;25036;53.638;10.134;2022-12-29T03:28:16;1.05;;;0.80;;
39322;SDS011;25036;53.638;10.134;2022-12-29T03:29:18;1.30;;;0.93;;
39322;SDS011;25036;53.638;10.134;2022-12-29T03:30:20;1.05;;;1.00;;
39322;SDS011;25036;53.638;10.134;2022-12-29T03:31:20;1.30;;;0.75;;
39322;SDS011;25036;53.638;10.134;2022-12-29T03:32:23;1.75;;;1.00;;
39322;SDS011;25036;53.638;10.134;2022-12-29T03:33:26;1.67;;;0.68;;
39322;SDS011;25036;53.638;10.134;2022-12-29T03:34:28;2.80;;;0.85;;
39322;SDS011;25036;53.638;10.134;2022-12-29T03:35:30;1.50;;;0.80;;
39322;SDS011;25036;53.638;10.134;2022-12-29T03:36:33;1.02;;;0.80;;
39322;SDS011;25036;53.638;10.134;2022-12-29T03:37:37;1.10;;;1.00;;
39322;SDS011;25036;53.638;10.134;2022-12-29T03:39:39;1.70;;;1.10;;
39322;SDS011;25036;53.638;10.134;2022-12-29T03:40:43;0.60;;;0.60;;
39322;SDS011;25036;53.638;10.134;2022-12-29T03:41:44;1.02;;;0.77;;
39322;SDS011;25036;53.638;10.134;2022-12-29T03:42:45;1.65;;;0.80;;
39322;SDS011;25036;53.638;10.134;2022-12-29T03:43:46;2.28;;;0.73;;
39322;SDS011;25036;53.638;10.134;2022-12-29T03:44:46;1.58;;;0.80;;
39322;SDS011;25036;53.638;10.134;2022-12-29T03:45:46;0.68;;;0.68;;
39322;SDS011;25036;53.638;10.134;2022-12-29T03:46:47;1.70;;;0.75;;
39322;SDS011;25036;53.638;10.134;2022-12-29T03:47:47;0.93;;;0.70;;
39322;SDS011;25036;53.638;10.134;2022-12-29T03:48:47;0.80;;;0.80;;
39322;SDS011;25036;53.638;10.134;2022-12-29T03:49:47;1.10;;;0.90;;
39322;SDS011;25036;53.638;10.134;2022-12-29T03:50:48;2.25;;;0.80;;
39322;SDS011;25036;53.638;10.134;2022-12-29T03:51:48;0.70;;;0.70;;
39322;SDS011;25036;53.638;10.134;2022-12-29T03:52:48;1.03;;;0.60;;
39322;SDS011;25036;53.638;10.134;2022-12-29T03:53:48;0.98;;;0.80;;
39322;SDS011;25036;53.638;10.134;2022-12-29T03:54:49;1.13;;;0.70;;
39322;SDS011;25036;53.638;10.134;2022-12-29T03:55:49;1.17;;;0.63;;
39322;SDS011;25036;53.638;10.134;2022-12-29T03:56:49;0.52;;;0.52;;
39322;SDS011;25036;53.638;10.134;2022-12-29T03:57:49;1.25;;;0.85;;
39322;SDS011;25036;53.638;10.134;2022-12-29T03:58:49;0.90;;;0.82;;
39322;SDS011;25036;53.638;10.134;2022-12-29T03:59:49;1.10;;;0.70;;
39322;SDS011;25036;53.638;10.134;2022-12-29T04:00:50;0.68;;;0.68;;
39322;SDS011;25036;53.638;10.134;2022-12-29T04:01:50;1.57;;;0.70;;
39322;SDS011;25036;53.638;10.134;2022-12-29T04:02:50;1.10;;;0.70;;
39322;SDS011;25036;53.638;10.134;2022-12-29T04:03:50;0.70;;;0.60;;
39322;SDS011;25036;53.638;10.134;2022-12-29T04:04:50;0.70;;;0.70;;
39322;SDS011;25036;53.638;10.134;2022-12-29T04:05:50;0.97;;;0.70;;
39322;SDS011;25036;53.638;10.134;2022-12-29T04:06:51;1.70;;;0.77;;
39322;SDS011;25036;53.638;10.134;2022-12-29T04:07:51;0.80;;;0.70;;
39322;SDS011;25036;53.638;10.134;2022-12-29T04:08:51;1.60;;;0.80;;
39322;SDS011;25036;53.638;10.134;2022-12-29T04:09:51;2.03;;;0.77;;
39322;SDS011;25036;53.638;10.134;2022-12-29T04:10:51;1.03;;;0.63;;
39322;SDS011;25036;53.638;10.134;2022-12-29T04:11:51;1.57;;;0.77;;
39322;SDS011;25036;53.638;10.134;2022-12-29T04:12:51;1.00;;;0.70;;
39322;SDS011;25036;53.638;10.134;2022-12-29T04:13:52;2.27;;;0.77;;
39322;SDS011;25036;53.638;10.134;2022-12-29T04:14:52;1.73;;;0.90;;
39322;SDS011;25036;53.638;10.134;2022-12-29T04:15:52;0.77;;;0.70;;
39322;SDS011;25036;53.638;10.134;2022-12-29T04:16:52;1.35;;;0.70;;
39322;SDS011;25036;53.638;10.134;2022-12-29T04:17:52;0.75;;;0.55;;
39322;SDS011;25036;53.638;10.134;2022-12-29T04:18:52;1.55;;;0.80;;
39322;SDS011;25036;53.638;10.134;2022-12-29T04:19:53;0.60;;;0.60;;
39322;SDS011;25036;53.638;10.134;2022-12-29T04:21:13;1.40;;;0.90;;
39322;SDS011;25036;53.638;10.134;2022-12-29T04:22:13;0.50;;;0.50;;
39322;SDS011;25036;53.638;10.134;2022-12-29T04:23:13;1.53;;;0.60;;
39322;SDS011;25036;53.638;10.134;2022-12-29T04:24:13;1.17;;;0.90;;
39322;SDS011;25036;53.638;10.134;2022-12-29T04:25:13;1.23;;;0.80;;
39322;SDS011;25036;53.638;10.134;2022-12-29T04:26:14;2.50;;;0.80;;
39322;SDS011;25036;53.638;10.134;2022-12-29T04:27:14;1.70;;;1.60;;
39322;SDS011;25036;53.638;10.134;2022-12-29T04:28:14;0.50;;;0.40;;
39322;SDS011;25036;53.638;10.134;2022-12-29T04:29:15;1.02;;;0.80;;
39322;SDS011;25036;53.638;10.134;2022-12-29T04:30:15;0.47;;;0.47;;
39322;SDS011;25036;53.638;10.134;2022-12-29T04:31:15;3.57;;;0.90;;
39322;SDS011;25036;53.638;10.134;2022-12-29T04:32:15;0.95;;;0.80;;
39322;SDS011;25036;53.638;10.134;2022-12-29T04:33:16;0.63;;;0.63;;
39322;SDS011;25036;53.638;10.134;2022-12-29T04:34:16;1.10;;;1.00;;
39322;SDS011;25036;53.638;10.134;2022-12-29T04:35:16;1.40;;;0.80;;
39322;SDS011;25036;53.638;10.134;2022-12-29T04:36:16;1.13;;;0.70;;
39322;SDS011;25036;53.638;10.134;2022-12-29T04:37:16;1.53;;;0.80;;
39322;SDS011;25036;53.638;10.134;2022-12-29T04:38:17;0.63;;;0.63;;
39322;SDS011;25036;53.638;10.134;2022-12-29T04:39:17;0.87;;;0.60;;
39322;SDS011;25036;53.638;10.134;2022-12-29T04:40:17;0.70;;;0.70;;
39322;SDS011;25036;53.638;10.134;2022-12-29T04:41:17;2.40;;;0.57;;
39322;SDS011;25036;53.638;10.134;2022-12-29T04:42:17;0.93;;;0.60;;
39322;SDS011;25036;53.638;10.134;2022-12-29T04:43:17;1.03;;;0.60;;
39322;SDS011;25036;53.638;10.134;2022-12-29T04:44:22;1.73;;;0.80;;
39322;SDS011;25036;53.638;10.134;2022-12-29T04:45:22;1.87;;;0.80;;
39322;SDS011;25036;53.638;10.134;2022-12-29T04:46:22;1.70;;;1.07;;
39322;SDS011;25036;53.638;10.134;2022-12-29T04:47:22;1.00;;;0.80;;
39322;SDS011;25036;53.638;10.134;2022-12-29T04:48:22;0.93;;;0.67;;
39322;SDS011;25036;53.638;10.134;2022-12-29T04:49:23;1.00;;;0.60;;
39322;SDS011;25036;53.638;10.134;2022-12-29T04:50:23;0.90;;;0.60;;
39322;SDS011;25036;53.638;10.134;2022-12-29T04:51:23;2.60;;;0.87;;
39322;SDS011;25036;53.638;10.134;2022-12-29T04:52:23;0.80;;;0.53;;
39322;SDS011;25036;53.638;10.134;2022-12-29T04:53:23;0.73;;;0.57;;
39322;SDS011;25036;53.638;10.134;2022-12-29T04:54:23;2.60;;;0.70;;
39322;SDS011;25036;53.638;10.134;2022-12-29T04:55:24;0.40;;;0.40;;
39322;SDS011;25036;53.638;10.134;2022-12-29T04:56:24;2.27;;;0.73;;
39322;SDS011;25036;53.638;10.134;2022-12-29T04:57:24;0.80;;;0.80;;
39322;SDS011;25036;53.638;10.134;2022-12-29T04:58:24;1.57;;;1.33;;
39322;SDS011;25036;53.638;10.134;2022-12-29T04:59:24;0.80;;;0.80;;
39322;SDS011;25036;53.638;10.134;2022-12-29T05:00:24;0.60;;;0.60;;
39322;SDS011;25036;53.638;10.134;2022-12-29T05:01:25;1.92;;;0.57;;
39322;SDS011;25036;53.638;10.134;2022-12-29T05:02:25;0.50;;;0.50;;
39322;SDS011;25036;53.638;10.134;2022-12-29T05:03:25;0.65;;;0.50;;
39322;SDS011;25036;53.638;10.134;2022-12-29T05:04:25;0.35;;;0.35;;
39322;SDS011;25036;53.638;10.134;2022-12-29T05:05:26;3.38;;;0.80;;
39322;SDS011;25036;53.638;10.134;2022-12-29T05:06:26;0.50;;;0.50;;
39322;SDS011;25036;53.638;10.134;2022-12-29T05:07:26;0.57;;;0.57;;
39322;SDS011;25036;53.638;10.134;2022-12-29T05:08:26;1.30;;;0.52;;
39322;SDS011;25036;53.638;10.134;2022-12-29T05:09:26;1.13;;;0.47;;
39322;SDS011;25036;53.638;10.134;2022-12-29T05:10:26;0.47;;;0.45;;
39322;SDS011;25036;53.638;10.134;2022-12-29T05:11:27;0.43;;;0.40;;
39322;SDS011;25036;53.638;10.134;2022-12-29T05:12:30;1.03;;;0.60;;
39322;SDS011;25036;53.638;10.134;2022-12-29T05:13:31;0.60;;;0.60;;
39322;SDS011;25036;53.638;10.134;2022-12-29T05:14:31;1.05;;;0.70;;
39322;SDS011;25036;53.638;10.134;2022-12-29T05:15:31;2.10;;;0.60;;
39322;SDS011;25036;53.638;10.134;2022-12-29T05:16:31;0.50;;;0.50;;
39322;SDS011;25036;53.638;10.134;2022-12-29T05:17:31;1.03;;;0.40;;
39322;SDS011;25036;53.638;10.134;2022-12-29T05:18:32;0.80;;;0.60;;
39322;SDS011;25036;53.638;10.134;2022-12-29T05:19:32;0.40;;;0.40;;
39322;SDS011;25036;53.638;10.134;2022-12-29T05:20:32;1.75;;;0.85;;
39322;SDS011;25036;53.638;10.134;2022-12-29T05:21:32;0.50;;;0.50;;
39322;SDS011;25036;53.638;10.134;2022-12-29T05:22:32;0.70;;;0.50;;
39322;SDS011;25036;53.638;10.134;2022-12-29T05:23:32;0.43;;;0.43;;
39322;SDS011;25036;53.638;10.134;2022-12-29T05:24:32;0.50;;;0.50;;
39322;SDS011;25036;53.638;10.134;2022-12-29T05:25:33;0.60;;;0.60;;
39322;SDS011;25036;53.638;10.134;2022-12-29T05:26:33;1.13;;;0.60;;
39322;SDS011;25036;53.638;10.134;2022-12-29T05:27:33;1.45;;;1.15;;
39322;SDS011;25036;53.638;10.134;2022-12-29T05:28:33;0.73;;;0.70;;
39322;SDS011;25036;53.638;10.134;2022-12-29T05:29:33;1.63;;;0.50;;
39322;SDS011;25036;53.638;10.134;2022-12-29T05:30:33;0.50;;;0.50;;
39322;SDS011;25036;53.638;10.134;2022-12-29T05:31:33;0.60;;;0.60;;
39322;SDS011;25036;53.638;10.134;2022-12-29T05:32:35;2.25;;;0.52;;
39322;SDS011;25036;53.638;10.134;2022-12-29T05:33:35;1.50;;;0.50;;
39322;SDS011;25036;53.638;10.134;2022-12-29T05:34:35;1.17;;;0.50;;
39322;SDS011;25036;53.638;10.134;2022-12-29T05:35:35;1.57;;;0.40;;
39322;SDS011;25036;53.638;10.134;2022-12-29T05:36:36;0.37;;;0.37;;
39322;SDS011;25036;53.638;10.134;2022-12-29T05:37:36;0.53;;;0.53;;
39322;SDS011;25036;53.638;10.134;2022-12-29T05:38:36;0.77;;;0.40;;
39322;SDS011;25036;53.638;10.134;2022-12-29T05:39:36;0.83;;;0.70;;
39322;SDS011;25036;53.638;10.134;2022-12-29T05:40:36;0.93;;;0.37;;
39322;SDS011;25036;53.638;10.134;2022-12-29T05:41:36;1.67;;;0.50;;
39322;SDS011;25036;53.638;10.134;2022-12-29T05:42:36;1.03;;;0.50;;
39322;SDS011;25036;53.638;10.134;2022-12-29T05:43:37;1.07;;;0.60;;
39322;SDS011;25036;53.638;10.134;2022-12-29T05:44:37;0.50;;;0.50;;
39322;SDS011;25036;53.638;10.134;2022-12-29T05:45:37;1.23;;;0.40;;
39322;SDS011;25036;53.638;10.134;2022-12-29T05:46:37;0.57;;;0.50;;
39322;SDS011;25036;53.638;10.134;2022-12-29T05:47:37;0.52;;;0.50;;
39322;SDS011;25036;53.638;10.134;2022-12-29T05:48:38;0.73;;;0.60;;
39322;SDS011;25036;53.638;10.134;2022-12-29T05:49:38;1.93;;;0.50;;
39322;SDS011;25036;53.638;10.134;2022-12-29T05:50:38;1.20;;;0.57;;
39322;SDS011;25036;53.638;10.134;2022-12-29T05:51:38;0.97;;;0.50;;
39322;SDS011;25036;53.638;10.134;2022-12-29T05:52:38;1.10;;;0.57;;
39322;SDS011;25036;53.638;10.134;2022-12-29T05:53:38;0.93;;;0.50;;
39322;SDS011;25036;53.638;10.134;2022-12-29T05:54:38;1.50;;;0.60;;
39322;SDS011;25036;53.638;10.134;2022-12-29T05:55:39;2.33;;;0.77;;
39322;SDS011;25036;53.638;10.134;2022-12-29T05:56:39;0.60;;;0.47;;
39322;SDS011;25036;53.638;10.134;2022-12-29T05:57:39;0.50;;;0.50;;
39322;SDS011;25036;53.638;10.134;2022-12-29T05:58:39;1.75;;;0.60;;
39322;SDS011;25036;53.638;10.134;2022-12-29T05:59:39;0.60;;;0.37;;
39322;SDS011;25036;53.638;10.134;2022-12-29T06:00:39;0.57;;;0.53;;
39322;SDS011;25036;53.638;10.134;2022-12-29T06:01:39;2.20;;;0.40;;
39322;SDS011;25036;53.638;10.134;2022-12-29T06:02:40;1.10;;;0.40;;
39322;SDS011;25036;53.638;10.134;2022-12-29T06:03:40;1.95;;;0.47;;
39322;SDS011;25036;53.638;10.134;2022-12-29T06:04:40;1.70;;;0.60;;
39322;SDS011;25036;53.638;10.134;2022-12-29T06:05:40;0.93;;;0.50;;
39322;SDS011;25036;53.638;10.134;2022-12-29T06:06:40;0.82;;;0.50;;
39322;SDS011;25036;53.638;10.134;2022-12-29T06:07:41;1.05;;;0.40;;
39322;SDS011;25036;53.638;10.134;2022-12-29T06:08:41;0.40;;;0.40;;
39322;SDS011;25036;53.638;10.134;2022-12-29T06:09:41;1.07;;;0.60;;
39322;SDS011;25036;53.638;10.134;2022-12-29T06:10:42;0.93;;;0.50;;
39322;SDS011;25036;53.638;10.134;2022-12-29T06:11:42;1.23;;;0.50;;
39322;SDS011;25036;53.638;10.134;2022-12-29T06:12:42;0.32;;;0.30;;
39322;SDS011;25036;53.638;10.134;2022-12-29T06:13:43;0.43;;;0.20;;
39322;SDS011;25036;53.638;10.134;2022-12-29T06:14:43;0.50;;;0.40;;
39322;SDS011;25036;53.638;10.134;2022-12-29T06:15:43;0.60;;;0.40;;
39322;SDS011;25036;53.638;10.134;2022-12-29T06:16:43;1.30;;;0.60;;
39322;SDS011;25036;53.638;10.134;2022-12-29T06:17:43;0.50;;;0.40;;
39322;SDS011;25036;53.638;10.134;2022-12-29T06:18:44;1.03;;;0.50;;
39322;SDS011;25036;53.638;10.134;2022-12-29T06:19:44;0.47;;;0.30;;
39322;SDS011;25036;53.638;10.134;2022-12-29T06:20:44;2.42;;;0.60;;
39322;SDS011;25036;53.638;10.134;2022-12-29T06:21:44;0.57;;;0.43;;
39322;SDS011;25036;53.638;10.134;2022-12-29T06:22:44;0.73;;;0.40;;
39322;SDS011;25036;53.638;10.134;2022-12-29T06:23:46;1.15;;;0.40;;
39322;SDS011;25036;53.638;10.134;2022-12-29T06:24:46;0.67;;;0.50;;
39322;SDS011;25036;53.638;10.134;2022-12-29T06:25:46;0.30;;;0.30;;
39322;SDS011;25036;53.638;10.134;2022-12-29T06:26:47;0.73;;;0.40;;
39322;SDS011;25036;53.638;10.134;2022-12-29T06:27:47;1.40;;;0.40;;
39322;SDS011;25036;53.638;10.134;2022-12-29T06:28:48;0.75;;;0.35;;
39322;SDS011;25036;53.638;10.134;2022-12-29T06:29:48;0.45;;;0.40;;
39322;SDS011;25036;53.638;10.134;2022-12-29T06:30:49;0.40;;;0.22;;
39322;SDS011;25036;53.638;10.134;2022-12-29T06:31:49;0.65;;;0.32;;
39322;SDS011;25036;53.638;10.134;2022-12-29T06:32:51;1.00;;;0.30;;
39322;SDS011;25036;53.638;10.134;2022-12-29T06:33:51;0.73;;;0.30;;
39322;SDS011;25036;53.638;10.134;2022-12-29T06:34:51;1.10;;;0.28;;
39322;SDS011;25036;53.638;10.134;2022-12-29T06:35:51;0.50;;;0.33;;
39322;SDS011;25036;53.638;10.134;2022-12-29T06:36:51;0.30;;;0.30;;